sensor_id;sensor_type;location;lat;lon;timestamp;P1;durP1;ratioP1;P2;durP2;ratioP2
49738;SDS011;53662;50.114;8.626;2024-01-30T00:01:23;42.20;;;18.85;;
49738;SDS011;53662;50.114;8.626;2024-01-30T00:03:49;33.80;;;17.27;;
49738;SDS011;53662;50.114;8.626;2024-01-30T00:06:18;32.95;;;18.20;;
49738;SDS011;53662;50.114;8.626;2024-01-30T00:08:44;37.53;;;17.48;;
49738;SDS011;53662;50.114;8.626;2024-01-30T00:11:13;28.83;;;17.42;;
49738;SDS011;53662;50.114;8.626;2024-01-30T00:13:39;26.83;;;17.27;;
49738;SDS011;53662;50.114;8.626;2024-01-30T00:16:05;28.38;;;17.38;;
49738;SDS011;53662;50.114;8.626;2024-01-30T00:18:31;31.35;;;17.83;;
49738;SDS011;53662;50.114;8.626;2024-01-30T00:20:57;27.95;;;16.48;;
49738;SDS011;53662;50.114;8.626;2024-01-30T00:23:23;28.23;;;18.17;;
49738;SDS011;53662;50.114;8.626;2024-01-30T00:25:49;30.77;;;16.88;;
49738;SDS011;53662;50.114;8.626;2024-01-30T00:28:15;29.08;;;16.52;;
49738;SDS011;53662;50.114;8.626;2024-01-30T00:30:41;27.77;;;17.20;;
49738;SDS011;53662;50.114;8.626;2024-01-30T00:33:08;24.42;;;15.82;;
49738;SDS011;53662;50.114;8.626;2024-01-30T00:35:34;26.73;;;16.27;;
49738;SDS011;53662;50.114;8.626;2024-01-30T00:38:00;32.72;;;17.35;;
49738;SDS011;53662;50.114;8.626;2024-01-30T00:40:26;31.30;;;16.38;;
49738;SDS011;53662;50.114;8.626;2024-01-30T00:42:52;28.50;;;16.45;;
49738;SDS011;53662;50.114;8.626;2024-01-30T00:45:18;31.35;;;16.45;;
49738;SDS011;53662;50.114;8.626;2024-01-30T00:47:44;24.17;;;15.93;;
49738;SDS011;53662;50.114;8.626;2024-01-30T00:50:10;29.75;;;15.52;;
49738;SDS011;53662;50.114;8.626;2024-01-30T00:52:36;26.13;;;15.25;;
49738;SDS011;53662;50.114;8.626;2024-01-30T00:55:04;25.63;;;15.73;;
49738;SDS011;53662;50.114;8.626;2024-01-30T00:57:30;26.08;;;15.32;;
49738;SDS011;53662;50.114;8.626;2024-01-30T00:59:56;29.88;;;15.95;;
49738;SDS011;53662;50.114;8.626;2024-01-30T01:02:22;29.27;;;15.68;;
49738;SDS011;53662;50.114;8.626;2024-01-30T01:04:48;25.25;;;15.77;;
49738;SDS011;53662;50.114;8.626;2024-01-30T01:07:15;30.02;;;16.10;;
49738;SDS011;53662;50.114;8.626;2024-01-30T01:09:40;30.00;;;14.32;;
49738;SDS011;53662;50.114;8.626;2024-01-30T01:12:06;24.40;;;15.05;;
49738;SDS011;53662;50.114;8.626;2024-01-30T01:14:32;23.65;;;14.63;;
49738;SDS011;53662;50.114;8.626;2024-01-30T01:16:58;22.63;;;15.07;;
49738;SDS011;53662;50.114;8.626;2024-01-30T01:19:24;24.77;;;14.82;;
49738;SDS011;53662;50.114;8.626;2024-01-30T01:21:50;29.98;;;14.27;;
49738;SDS011;53662;50.114;8.626;2024-01-30T01:24:16;21.00;;;14.15;;
49738;SDS011;53662;50.114;8.626;2024-01-30T01:26:42;23.48;;;13.85;;
49738;SDS011;53662;50.114;8.626;2024-01-30T01:29:08;25.20;;;13.77;;
49738;SDS011;53662;50.114;8.626;2024-01-30T01:31:36;19.45;;;13.30;;
49738;SDS011;53662;50.114;8.626;2024-01-30T01:34:08;23.92;;;13.93;;
49738;SDS011;53662;50.114;8.626;2024-01-30T01:36:34;23.88;;;12.68;;
49738;SDS011;53662;50.114;8.626;2024-01-30T01:39:00;24.15;;;14.23;;
49738;SDS011;53662;50.114;8.626;2024-01-30T01:41:29;21.35;;;13.45;;
49738;SDS011;53662;50.114;8.626;2024-01-30T01:43:56;21.25;;;12.88;;
49738;SDS011;53662;50.114;8.626;2024-01-30T01:46:22;23.33;;;14.15;;
49738;SDS011;53662;50.114;8.626;2024-01-30T01:48:48;25.52;;;13.88;;
49738;SDS011;53662;50.114;8.626;2024-01-30T01:51:14;23.70;;;14.18;;
49738;SDS011;53662;50.114;8.626;2024-01-30T01:53:40;24.90;;;13.63;;
49738;SDS011;53662;50.114;8.626;2024-01-30T01:56:06;22.67;;;13.55;;
49738;SDS011;53662;50.114;8.626;2024-01-30T01:58:32;20.90;;;12.65;;
49738;SDS011;53662;50.114;8.626;2024-01-30T02:00:58;24.00;;;14.05;;
49738;SDS011;53662;50.114;8.626;2024-01-30T02:03:24;24.10;;;14.02;;
49738;SDS011;53662;50.114;8.626;2024-01-30T02:05:50;20.80;;;12.68;;
49738;SDS011;53662;50.114;8.626;2024-01-30T02:08:16;26.95;;;14.20;;
49738;SDS011;53662;50.114;8.626;2024-01-30T02:10:42;22.30;;;13.13;;
49738;SDS011;53662;50.114;8.626;2024-01-30T02:13:08;20.40;;;12.80;;
49738;SDS011;53662;50.114;8.626;2024-01-30T02:15:34;18.88;;;12.82;;
49738;SDS011;53662;50.114;8.626;2024-01-30T02:18:00;22.45;;;14.30;;
49738;SDS011;53662;50.114;8.626;2024-01-30T02:20:26;21.48;;;13.75;;
49738;SDS011;53662;50.114;8.626;2024-01-30T02:22:53;20.20;;;13.10;;
49738;SDS011;53662;50.114;8.626;2024-01-30T02:25:20;20.48;;;12.57;;
49738;SDS011;53662;50.114;8.626;2024-01-30T02:27:45;17.83;;;11.48;;
49738;SDS011;53662;50.114;8.626;2024-01-30T02:30:32;24.50;;;13.68;;
49738;SDS011;53662;50.114;8.626;2024-01-30T02:32:58;23.58;;;13.55;;
49738;SDS011;53662;50.114;8.626;2024-01-30T02:35:24;24.48;;;12.73;;
49738;SDS011;53662;50.114;8.626;2024-01-30T02:37:49;18.02;;;13.48;;
49738;SDS011;53662;50.114;8.626;2024-01-30T02:40:15;22.77;;;13.20;;
49738;SDS011;53662;50.114;8.626;2024-01-30T02:42:42;19.77;;;12.73;;
49738;SDS011;53662;50.114;8.626;2024-01-30T02:45:09;20.17;;;12.45;;
49738;SDS011;53662;50.114;8.626;2024-01-30T02:47:35;25.55;;;13.65;;
49738;SDS011;53662;50.114;8.626;2024-01-30T02:50:01;20.42;;;12.50;;
49738;SDS011;53662;50.114;8.626;2024-01-30T02:52:27;24.13;;;12.77;;
49738;SDS011;53662;50.114;8.626;2024-01-30T02:54:53;26.38;;;12.60;;
49738;SDS011;53662;50.114;8.626;2024-01-30T02:57:19;18.85;;;12.70;;
49738;SDS011;53662;50.114;8.626;2024-01-30T02:59:45;22.80;;;12.90;;
49738;SDS011;53662;50.114;8.626;2024-01-30T03:02:11;19.17;;;12.50;;
49738;SDS011;53662;50.114;8.626;2024-01-30T03:04:37;21.42;;;14.10;;
49738;SDS011;53662;50.114;8.626;2024-01-30T03:07:03;27.33;;;13.52;;
49738;SDS011;53662;50.114;8.626;2024-01-30T03:09:28;18.88;;;12.25;;
49738;SDS011;53662;50.114;8.626;2024-01-30T03:11:54;21.95;;;13.93;;
49738;SDS011;53662;50.114;8.626;2024-01-30T03:14:20;27.15;;;15.10;;
49738;SDS011;53662;50.114;8.626;2024-01-30T03:16:46;22.77;;;13.50;;
49738;SDS011;53662;50.114;8.626;2024-01-30T03:19:12;24.60;;;13.80;;
49738;SDS011;53662;50.114;8.626;2024-01-30T03:21:38;21.67;;;12.85;;
49738;SDS011;53662;50.114;8.626;2024-01-30T03:24:04;23.88;;;13.65;;
49738;SDS011;53662;50.114;8.626;2024-01-30T03:26:30;20.77;;;12.68;;
49738;SDS011;53662;50.114;8.626;2024-01-30T03:28:56;27.27;;;14.00;;
49738;SDS011;53662;50.114;8.626;2024-01-30T03:31:22;26.92;;;15.05;;
49738;SDS011;53662;50.114;8.626;2024-01-30T03:33:48;24.15;;;13.15;;
49738;SDS011;53662;50.114;8.626;2024-01-30T03:36:15;24.75;;;13.35;;
49738;SDS011;53662;50.114;8.626;2024-01-30T03:38:41;26.88;;;14.07;;
49738;SDS011;53662;50.114;8.626;2024-01-30T03:41:07;27.13;;;14.88;;
49738;SDS011;53662;50.114;8.626;2024-01-30T03:43:34;23.65;;;14.75;;
49738;SDS011;53662;50.114;8.626;2024-01-30T03:46:00;26.35;;;14.73;;
49738;SDS011;53662;50.114;8.626;2024-01-30T03:48:27;29.52;;;14.07;;
49738;SDS011;53662;50.114;8.626;2024-01-30T03:50:53;27.17;;;15.32;;
49738;SDS011;53662;50.114;8.626;2024-01-30T03:53:18;22.42;;;14.05;;
49738;SDS011;53662;50.114;8.626;2024-01-30T03:55:44;26.70;;;14.88;;
49738;SDS011;53662;50.114;8.626;2024-01-30T03:58:10;24.73;;;14.50;;
49738;SDS011;53662;50.114;8.626;2024-01-30T04:00:36;26.40;;;14.20;;
49738;SDS011;53662;50.114;8.626;2024-01-30T04:03:02;29.80;;;15.32;;
49738;SDS011;53662;50.114;8.626;2024-01-30T04:05:28;25.90;;;14.52;;
49738;SDS011;53662;50.114;8.626;2024-01-30T04:07:54;23.65;;;14.00;;
49738;SDS011;53662;50.114;8.626;2024-01-30T04:10:20;21.65;;;14.68;;
49738;SDS011;53662;50.114;8.626;2024-01-30T04:12:46;23.20;;;13.15;;
49738;SDS011;53662;50.114;8.626;2024-01-30T04:15:12;26.40;;;14.25;;
49738;SDS011;53662;50.114;8.626;2024-01-30T04:17:39;19.95;;;13.25;;
49738;SDS011;53662;50.114;8.626;2024-01-30T04:20:05;23.92;;;14.63;;
49738;SDS011;53662;50.114;8.626;2024-01-30T04:22:31;23.70;;;13.15;;
49738;SDS011;53662;50.114;8.626;2024-01-30T04:24:57;22.23;;;13.90;;
49738;SDS011;53662;50.114;8.626;2024-01-30T04:27:23;22.70;;;13.90;;
49738;SDS011;53662;50.114;8.626;2024-01-30T04:29:49;24.60;;;13.15;;
49738;SDS011;53662;50.114;8.626;2024-01-30T04:32:15;27.77;;;13.07;;
49738;SDS011;53662;50.114;8.626;2024-01-30T04:34:41;21.65;;;13.55;;
49738;SDS011;53662;50.114;8.626;2024-01-30T04:37:07;26.02;;;13.55;;
49738;SDS011;53662;50.114;8.626;2024-01-30T04:39:33;22.38;;;13.10;;
49738;SDS011;53662;50.114;8.626;2024-01-30T04:41:59;22.58;;;13.30;;
49738;SDS011;53662;50.114;8.626;2024-01-30T04:44:25;22.35;;;14.20;;
49738;SDS011;53662;50.114;8.626;2024-01-30T04:46:51;25.75;;;14.07;;
49738;SDS011;53662;50.114;8.626;2024-01-30T04:49:16;31.95;;;14.50;;
49738;SDS011;53662;50.114;8.626;2024-01-30T04:51:42;31.27;;;14.32;;
49738;SDS011;53662;50.114;8.626;2024-01-30T04:54:08;31.95;;;13.90;;
49738;SDS011;53662;50.114;8.626;2024-01-30T04:56:34;23.67;;;13.45;;
49738;SDS011;53662;50.114;8.626;2024-01-30T04:59:01;22.52;;;14.35;;
49738;SDS011;53662;50.114;8.626;2024-01-30T05:01:27;23.10;;;13.30;;
49738;SDS011;53662;50.114;8.626;2024-01-30T05:03:53;23.55;;;13.63;;
49738;SDS011;53662;50.114;8.626;2024-01-30T05:06:26;23.48;;;13.43;;
49738;SDS011;53662;50.114;8.626;2024-01-30T05:08:52;25.30;;;13.52;;
49738;SDS011;53662;50.114;8.626;2024-01-30T05:11:18;19.02;;;13.57;;
49738;SDS011;53662;50.114;8.626;2024-01-30T05:13:44;21.00;;;12.93;;
49738;SDS011;53662;50.114;8.626;2024-01-30T05:16:10;24.92;;;14.02;;
49738;SDS011;53662;50.114;8.626;2024-01-30T05:18:36;22.10;;;13.45;;
49738;SDS011;53662;50.114;8.626;2024-01-30T05:21:02;21.38;;;12.07;;
49738;SDS011;53662;50.114;8.626;2024-01-30T05:23:28;29.13;;;13.15;;
49738;SDS011;53662;50.114;8.626;2024-01-30T05:25:54;22.02;;;12.43;;
49738;SDS011;53662;50.114;8.626;2024-01-30T05:28:20;34.08;;;12.82;;
49738;SDS011;53662;50.114;8.626;2024-01-30T05:30:46;31.20;;;12.52;;
49738;SDS011;53662;50.114;8.626;2024-01-30T05:33:12;20.08;;;12.32;;
49738;SDS011;53662;50.114;8.626;2024-01-30T05:35:38;20.15;;;12.00;;
49738;SDS011;53662;50.114;8.626;2024-01-30T05:38:04;32.17;;;12.55;;
49738;SDS011;53662;50.114;8.626;2024-01-30T05:40:30;24.40;;;13.65;;
49738;SDS011;53662;50.114;8.626;2024-01-30T05:42:56;20.60;;;13.43;;
49738;SDS011;53662;50.114;8.626;2024-01-30T05:45:27;23.50;;;13.13;;
49738;SDS011;53662;50.114;8.626;2024-01-30T05:47:53;16.83;;;11.80;;
49738;SDS011;53662;50.114;8.626;2024-01-30T05:50:19;38.28;;;12.40;;
49738;SDS011;53662;50.114;8.626;2024-01-30T05:52:48;23.80;;;12.85;;
49738;SDS011;53662;50.114;8.626;2024-01-30T05:55:14;22.48;;;11.45;;
49738;SDS011;53662;50.114;8.626;2024-01-30T05:57:40;46.92;;;12.82;;
49738;SDS011;53662;50.114;8.626;2024-01-30T06:00:06;28.05;;;12.07;;
49738;SDS011;53662;50.114;8.626;2024-01-30T06:02:33;24.40;;;12.02;;
49738;SDS011;53662;50.114;8.626;2024-01-30T06:04:59;32.25;;;11.57;;
49738;SDS011;53662;50.114;8.626;2024-01-30T06:07:25;29.20;;;12.93;;
49738;SDS011;53662;50.114;8.626;2024-01-30T06:09:51;44.10;;;13.00;;
49738;SDS011;53662;50.114;8.626;2024-01-30T06:12:17;51.50;;;12.02;;
49738;SDS011;53662;50.114;8.626;2024-01-30T06:14:43;20.50;;;11.98;;
49738;SDS011;53662;50.114;8.626;2024-01-30T06:17:09;19.77;;;11.68;;
49738;SDS011;53662;50.114;8.626;2024-01-30T06:19:36;24.45;;;12.15;;
49738;SDS011;53662;50.114;8.626;2024-01-30T06:22:03;20.92;;;12.10;;
49738;SDS011;53662;50.114;8.626;2024-01-30T06:24:29;21.52;;;12.05;;
49738;SDS011;53662;50.114;8.626;2024-01-30T06:26:55;19.27;;;12.20;;
49738;SDS011;53662;50.114;8.626;2024-01-30T06:29:21;37.25;;;12.45;;
49738;SDS011;53662;50.114;8.626;2024-01-30T06:31:49;22.25;;;12.00;;
49738;SDS011;53662;50.114;8.626;2024-01-30T06:34:15;23.88;;;12.18;;
49738;SDS011;53662;50.114;8.626;2024-01-30T06:36:41;19.73;;;11.73;;
49738;SDS011;53662;50.114;8.626;2024-01-30T06:39:07;23.70;;;12.38;;
49738;SDS011;53662;50.114;8.626;2024-01-30T06:41:33;26.52;;;13.05;;
49738;SDS011;53662;50.114;8.626;2024-01-30T06:44:01;25.77;;;12.38;;
49738;SDS011;53662;50.114;8.626;2024-01-30T06:46:28;25.55;;;12.98;;
49738;SDS011;53662;50.114;8.626;2024-01-30T06:48:55;31.35;;;16.38;;
49738;SDS011;53662;50.114;8.626;2024-01-30T06:51:21;27.02;;;14.13;;
49738;SDS011;53662;50.114;8.626;2024-01-30T06:53:47;29.17;;;13.20;;
49738;SDS011;53662;50.114;8.626;2024-01-30T06:56:13;31.20;;;13.48;;
49738;SDS011;53662;50.114;8.626;2024-01-30T06:58:39;29.08;;;13.95;;
49738;SDS011;53662;50.114;8.626;2024-01-30T07:01:06;24.48;;;13.70;;
49738;SDS011;53662;50.114;8.626;2024-01-30T07:03:31;26.13;;;13.55;;
49738;SDS011;53662;50.114;8.626;2024-01-30T07:05:58;27.00;;;14.07;;
49738;SDS011;53662;50.114;8.626;2024-01-30T07:08:24;26.48;;;14.52;;
49738;SDS011;53662;50.114;8.626;2024-01-30T07:10:50;21.42;;;13.50;;
49738;SDS011;53662;50.114;8.626;2024-01-30T07:13:20;23.30;;;13.75;;
49738;SDS011;53662;50.114;8.626;2024-01-30T07:15:45;35.10;;;13.55;;
49738;SDS011;53662;50.114;8.626;2024-01-30T07:18:11;25.13;;;13.00;;
49738;SDS011;53662;50.114;8.626;2024-01-30T07:20:38;18.40;;;12.10;;
49738;SDS011;53662;50.114;8.626;2024-01-30T07:23:14;21.70;;;12.80;;
49738;SDS011;53662;50.114;8.626;2024-01-30T07:25:42;24.02;;;12.25;;
49738;SDS011;53662;50.114;8.626;2024-01-30T07:28:08;19.40;;;8.45;;
49738;SDS011;53662;50.114;8.626;2024-01-30T07:30:35;25.13;;;10.32;;
49738;SDS011;53662;50.114;8.626;2024-01-30T07:33:01;20.60;;;11.30;;
49738;SDS011;53662;50.114;8.626;2024-01-30T07:35:27;26.65;;;11.32;;
49738;SDS011;53662;50.114;8.626;2024-01-30T07:37:53;20.60;;;11.30;;
49738;SDS011;53662;50.114;8.626;2024-01-30T07:40:19;26.02;;;11.43;;
49738;SDS011;53662;50.114;8.626;2024-01-30T07:42:45;23.90;;;11.75;;
49738;SDS011;53662;50.114;8.626;2024-01-30T07:45:11;24.80;;;11.73;;
49738;SDS011;53662;50.114;8.626;2024-01-30T07:47:37;18.92;;;12.02;;
49738;SDS011;53662;50.114;8.626;2024-01-30T07:50:03;19.85;;;11.90;;
49738;SDS011;53662;50.114;8.626;2024-01-30T07:52:29;19.70;;;11.82;;
49738;SDS011;53662;50.114;8.626;2024-01-30T07:54:55;27.67;;;11.90;;
49738;SDS011;53662;50.114;8.626;2024-01-30T07:57:21;41.45;;;12.02;;
49738;SDS011;53662;50.114;8.626;2024-01-30T07:59:47;24.63;;;11.52;;
49738;SDS011;53662;50.114;8.626;2024-01-30T08:02:13;26.42;;;12.63;;
49738;SDS011;53662;50.114;8.626;2024-01-30T08:04:39;23.90;;;11.15;;
49738;SDS011;53662;50.114;8.626;2024-01-30T08:07:05;21.60;;;10.95;;
49738;SDS011;53662;50.114;8.626;2024-01-30T08:09:31;16.23;;;10.48;;
49738;SDS011;53662;50.114;8.626;2024-01-30T08:11:57;20.77;;;12.52;;
49738;SDS011;53662;50.114;8.626;2024-01-30T08:14:23;22.20;;;12.00;;
49738;SDS011;53662;50.114;8.626;2024-01-30T08:16:49;46.85;;;12.10;;
49738;SDS011;53662;50.114;8.626;2024-01-30T08:19:15;26.98;;;11.40;;
49738;SDS011;53662;50.114;8.626;2024-01-30T08:21:40;21.50;;;11.70;;
49738;SDS011;53662;50.114;8.626;2024-01-30T08:24:07;20.30;;;11.82;;
49738;SDS011;53662;50.114;8.626;2024-01-30T08:26:33;22.85;;;11.73;;
49738;SDS011;53662;50.114;8.626;2024-01-30T08:29:00;24.35;;;12.52;;
49738;SDS011;53662;50.114;8.626;2024-01-30T08:31:26;19.20;;;11.80;;
49738;SDS011;53662;50.114;8.626;2024-01-30T08:33:52;20.70;;;12.60;;
49738;SDS011;53662;50.114;8.626;2024-01-30T08:36:17;21.67;;;12.25;;
49738;SDS011;53662;50.114;8.626;2024-01-30T08:38:43;18.48;;;11.95;;
49738;SDS011;53662;50.114;8.626;2024-01-30T08:41:09;21.42;;;12.93;;
49738;SDS011;53662;50.114;8.626;2024-01-30T08:43:35;31.95;;;12.90;;
49738;SDS011;53662;50.114;8.626;2024-01-30T08:46:02;22.83;;;12.55;;
49738;SDS011;53662;50.114;8.626;2024-01-30T08:48:28;22.55;;;12.18;;
49738;SDS011;53662;50.114;8.626;2024-01-30T08:50:54;25.98;;;12.30;;
49738;SDS011;53662;50.114;8.626;2024-01-30T08:53:20;24.48;;;12.75;;
49738;SDS011;53662;50.114;8.626;2024-01-30T08:55:46;23.85;;;12.98;;
49738;SDS011;53662;50.114;8.626;2024-01-30T08:58:12;23.30;;;13.13;;
49738;SDS011;53662;50.114;8.626;2024-01-30T09:00:43;21.88;;;13.43;;
49738;SDS011;53662;50.114;8.626;2024-01-30T09:03:09;26.38;;;13.68;;
49738;SDS011;53662;50.114;8.626;2024-01-30T09:05:35;20.23;;;12.77;;
49738;SDS011;53662;50.114;8.626;2024-01-30T09:08:00;22.55;;;12.77;;
49738;SDS011;53662;50.114;8.626;2024-01-30T09:10:26;24.35;;;13.43;;
49738;SDS011;53662;50.114;8.626;2024-01-30T09:12:52;21.27;;;12.70;;
49738;SDS011;53662;50.114;8.626;2024-01-30T09:15:18;20.08;;;12.57;;
49738;SDS011;53662;50.114;8.626;2024-01-30T09:17:44;23.48;;;12.27;;
49738;SDS011;53662;50.114;8.626;2024-01-30T09:20:10;18.90;;;12.55;;
49738;SDS011;53662;50.114;8.626;2024-01-30T09:22:36;17.15;;;12.05;;
49738;SDS011;53662;50.114;8.626;2024-01-30T09:25:02;26.65;;;12.82;;
49738;SDS011;53662;50.114;8.626;2024-01-30T09:27:28;24.55;;;12.90;;
49738;SDS011;53662;50.114;8.626;2024-01-30T09:29:54;28.13;;;14.68;;
49738;SDS011;53662;50.114;8.626;2024-01-30T09:32:20;25.75;;;12.75;;
49738;SDS011;53662;50.114;8.626;2024-01-30T09:34:46;21.45;;;13.35;;
49738;SDS011;53662;50.114;8.626;2024-01-30T09:37:12;25.73;;;13.27;;
49738;SDS011;53662;50.114;8.626;2024-01-30T09:39:40;26.35;;;13.35;;
49738;SDS011;53662;50.114;8.626;2024-01-30T09:44:36;21.23;;;13.50;;
49738;SDS011;53662;50.114;8.626;2024-01-30T09:47:03;22.65;;;13.75;;
49738;SDS011;53662;50.114;8.626;2024-01-30T09:49:34;26.55;;;13.90;;
49738;SDS011;53662;50.114;8.626;2024-01-30T09:52:01;21.65;;;13.00;;
49738;SDS011;53662;50.114;8.626;2024-01-30T09:54:29;22.83;;;12.77;;
49738;SDS011;53662;50.114;8.626;2024-01-30T09:56:56;19.92;;;13.20;;
49738;SDS011;53662;50.114;8.626;2024-01-30T09:59:22;21.15;;;13.25;;
49738;SDS011;53662;50.114;8.626;2024-01-30T10:01:48;19.58;;;13.23;;
49738;SDS011;53662;50.114;8.626;2024-01-30T10:04:15;23.90;;;13.82;;
49738;SDS011;53662;50.114;8.626;2024-01-30T10:06:41;26.25;;;13.05;;
49738;SDS011;53662;50.114;8.626;2024-01-30T10:09:07;21.77;;;13.43;;
49738;SDS011;53662;50.114;8.626;2024-01-30T10:11:34;20.02;;;12.82;;
49738;SDS011;53662;50.114;8.626;2024-01-30T10:14:00;18.02;;;12.27;;
49738;SDS011;53662;50.114;8.626;2024-01-30T10:16:26;19.58;;;13.52;;
49738;SDS011;53662;50.114;8.626;2024-01-30T10:18:52;22.58;;;12.98;;
49738;SDS011;53662;50.114;8.626;2024-01-30T10:21:18;17.67;;;12.27;;
49738;SDS011;53662;50.114;8.626;2024-01-30T10:23:44;21.85;;;13.50;;
49738;SDS011;53662;50.114;8.626;2024-01-30T10:26:10;23.55;;;13.07;;
49738;SDS011;53662;50.114;8.626;2024-01-30T10:28:36;19.50;;;12.18;;
49738;SDS011;53662;50.114;8.626;2024-01-30T10:31:02;21.25;;;12.85;;
49738;SDS011;53662;50.114;8.626;2024-01-30T10:33:29;21.08;;;12.85;;
49738;SDS011;53662;50.114;8.626;2024-01-30T10:36:00;20.10;;;12.27;;
49738;SDS011;53662;50.114;8.626;2024-01-30T10:38:27;24.95;;;13.07;;
49738;SDS011;53662;50.114;8.626;2024-01-30T10:40:55;24.17;;;12.43;;
49738;SDS011;53662;50.114;8.626;2024-01-30T10:43:22;26.83;;;13.40;;
49738;SDS011;53662;50.114;8.626;2024-01-30T10:45:49;16.52;;;11.30;;
49738;SDS011;53662;50.114;8.626;2024-01-30T10:48:15;20.55;;;13.00;;
49738;SDS011;53662;50.114;8.626;2024-01-30T10:50:42;19.25;;;13.07;;
49738;SDS011;53662;50.114;8.626;2024-01-30T10:53:08;21.80;;;13.77;;
49738;SDS011;53662;50.114;8.626;2024-01-30T10:55:35;30.45;;;14.60;;
49738;SDS011;53662;50.114;8.626;2024-01-30T10:58:02;20.23;;;13.50;;
49738;SDS011;53662;50.114;8.626;2024-01-30T11:00:28;22.35;;;13.10;;
49738;SDS011;53662;50.114;8.626;2024-01-30T11:02:54;22.63;;;12.90;;
49738;SDS011;53662;50.114;8.626;2024-01-30T11:05:23;20.52;;;12.80;;
49738;SDS011;53662;50.114;8.626;2024-01-30T11:07:51;18.77;;;12.48;;
49738;SDS011;53662;50.114;8.626;2024-01-30T11:10:17;22.08;;;14.00;;
49738;SDS011;53662;50.114;8.626;2024-01-30T11:12:43;18.42;;;13.98;;
49738;SDS011;53662;50.114;8.626;2024-01-30T11:15:12;20.58;;;13.07;;
49738;SDS011;53662;50.114;8.626;2024-01-30T11:20:18;21.67;;;13.10;;
49738;SDS011;53662;50.114;8.626;2024-01-30T11:22:45;24.48;;;12.45;;
49738;SDS011;53662;50.114;8.626;2024-01-30T11:25:12;24.02;;;12.93;;
49738;SDS011;53662;50.114;8.626;2024-01-30T11:27:38;24.35;;;13.43;;
49738;SDS011;53662;50.114;8.626;2024-01-30T11:30:05;25.88;;;13.20;;
49738;SDS011;53662;50.114;8.626;2024-01-30T11:32:31;20.95;;;13.40;;
49738;SDS011;53662;50.114;8.626;2024-01-30T11:34:57;22.15;;;13.10;;
49738;SDS011;53662;50.114;8.626;2024-01-30T11:37:24;23.92;;;13.32;;
49738;SDS011;53662;50.114;8.626;2024-01-30T11:39:53;20.73;;;13.40;;
49738;SDS011;53662;50.114;8.626;2024-01-30T11:42:19;21.30;;;12.82;;
49738;SDS011;53662;50.114;8.626;2024-01-30T11:44:48;18.02;;;12.95;;
49738;SDS011;53662;50.114;8.626;2024-01-30T11:47:14;21.52;;;11.95;;
49738;SDS011;53662;50.114;8.626;2024-01-30T11:49:40;22.55;;;13.88;;
49738;SDS011;53662;50.114;8.626;2024-01-30T11:52:06;23.83;;;13.70;;
49738;SDS011;53662;50.114;8.626;2024-01-30T11:54:32;15.55;;;12.02;;
49738;SDS011;53662;50.114;8.626;2024-01-30T11:56:58;16.90;;;12.68;;
49738;SDS011;53662;50.114;8.626;2024-01-30T11:59:24;19.73;;;10.95;;
49738;SDS011;53662;50.114;8.626;2024-01-30T12:01:51;28.42;;;13.00;;
49738;SDS011;53662;50.114;8.626;2024-01-30T12:04:17;25.33;;;12.10;;
49738;SDS011;53662;50.114;8.626;2024-01-30T12:06:43;24.15;;;12.73;;
49738;SDS011;53662;50.114;8.626;2024-01-30T12:09:09;19.25;;;12.23;;
49738;SDS011;53662;50.114;8.626;2024-01-30T12:11:47;20.45;;;12.02;;
49738;SDS011;53662;50.114;8.626;2024-01-30T12:14:14;18.88;;;12.60;;
49738;SDS011;53662;50.114;8.626;2024-01-30T12:16:41;22.95;;;11.75;;
49738;SDS011;53662;50.114;8.626;2024-01-30T12:19:07;17.90;;;12.30;;
49738;SDS011;53662;50.114;8.626;2024-01-30T12:21:34;19.58;;;12.43;;
49738;SDS011;53662;50.114;8.626;2024-01-30T12:24:00;21.30;;;12.07;;
49738;SDS011;53662;50.114;8.626;2024-01-30T12:26:26;17.48;;;11.45;;
49738;SDS011;53662;50.114;8.626;2024-01-30T12:28:55;19.35;;;13.45;;
49738;SDS011;53662;50.114;8.626;2024-01-30T12:31:31;22.40;;;13.35;;
49738;SDS011;53662;50.114;8.626;2024-01-30T12:33:59;18.83;;;13.02;;
49738;SDS011;53662;50.114;8.626;2024-01-30T12:36:25;20.20;;;13.90;;
49738;SDS011;53662;50.114;8.626;2024-01-30T12:38:51;18.23;;;12.10;;
49738;SDS011;53662;50.114;8.626;2024-01-30T12:41:17;20.83;;;13.70;;
49738;SDS011;53662;50.114;8.626;2024-01-30T12:43:43;23.90;;;13.07;;
49738;SDS011;53662;50.114;8.626;2024-01-30T12:46:09;20.95;;;12.88;;
49738;SDS011;53662;50.114;8.626;2024-01-30T12:48:35;16.63;;;12.20;;
49738;SDS011;53662;50.114;8.626;2024-01-30T12:51:01;34.22;;;13.90;;
49738;SDS011;53662;50.114;8.626;2024-01-30T12:53:27;15.15;;;11.85;;
49738;SDS011;53662;50.114;8.626;2024-01-30T12:55:53;20.77;;;13.00;;
49738;SDS011;53662;50.114;8.626;2024-01-30T12:58:19;22.27;;;13.43;;
49738;SDS011;53662;50.114;8.626;2024-01-30T13:00:45;26.33;;;14.88;;
49738;SDS011;53662;50.114;8.626;2024-01-30T13:03:12;19.00;;;12.43;;
49738;SDS011;53662;50.114;8.626;2024-01-30T13:05:38;32.00;;;12.57;;
49738;SDS011;53662;50.114;8.626;2024-01-30T13:08:04;25.15;;;13.20;;
49738;SDS011;53662;50.114;8.626;2024-01-30T13:10:30;19.33;;;12.27;;
49738;SDS011;53662;50.114;8.626;2024-01-30T13:12:56;17.80;;;12.02;;
49738;SDS011;53662;50.114;8.626;2024-01-30T13:15:22;23.52;;;12.63;;
49738;SDS011;53662;50.114;8.626;2024-01-30T13:17:48;18.85;;;12.98;;
49738;SDS011;53662;50.114;8.626;2024-01-30T13:20:14;23.40;;;12.23;;
49738;SDS011;53662;50.114;8.626;2024-01-30T13:22:46;34.30;;;14.43;;
49738;SDS011;53662;50.114;8.626;2024-01-30T13:25:13;20.98;;;12.30;;
49738;SDS011;53662;50.114;8.626;2024-01-30T13:27:39;14.82;;;11.98;;
49738;SDS011;53662;50.114;8.626;2024-01-30T13:30:06;17.15;;;12.38;;
49738;SDS011;53662;50.114;8.626;2024-01-30T13:32:33;21.52;;;12.85;;
49738;SDS011;53662;50.114;8.626;2024-01-30T13:34:59;20.13;;;13.27;;
49738;SDS011;53662;50.114;8.626;2024-01-30T13:37:24;19.05;;;12.90;;
49738;SDS011;53662;50.114;8.626;2024-01-30T13:39:50;18.10;;;12.48;;
49738;SDS011;53662;50.114;8.626;2024-01-30T13:42:16;23.23;;;12.95;;
49738;SDS011;53662;50.114;8.626;2024-01-30T13:44:42;17.33;;;11.95;;
49738;SDS011;53662;50.114;8.626;2024-01-30T13:47:09;18.00;;;12.95;;
49738;SDS011;53662;50.114;8.626;2024-01-30T13:49:35;16.23;;;12.80;;
49738;SDS011;53662;50.114;8.626;2024-01-30T13:52:01;18.40;;;12.90;;
49738;SDS011;53662;50.114;8.626;2024-01-30T13:54:28;30.90;;;12.20;;
49738;SDS011;53662;50.114;8.626;2024-01-30T13:56:55;21.13;;;12.45;;
49738;SDS011;53662;50.114;8.626;2024-01-30T13:59:21;23.25;;;13.48;;
49738;SDS011;53662;50.114;8.626;2024-01-30T14:01:49;20.27;;;12.88;;
49738;SDS011;53662;50.114;8.626;2024-01-30T14:04:15;24.90;;;12.80;;
49738;SDS011;53662;50.114;8.626;2024-01-30T14:06:41;26.48;;;13.23;;
49738;SDS011;53662;50.114;8.626;2024-01-30T14:09:07;18.73;;;12.88;;
49738;SDS011;53662;50.114;8.626;2024-01-30T14:11:33;23.88;;;12.85;;
49738;SDS011;53662;50.114;8.626;2024-01-30T14:13:59;24.15;;;12.85;;
49738;SDS011;53662;50.114;8.626;2024-01-30T14:16:25;18.95;;;13.00;;
49738;SDS011;53662;50.114;8.626;2024-01-30T14:18:50;22.77;;;13.00;;
49738;SDS011;53662;50.114;8.626;2024-01-30T14:21:17;26.85;;;12.38;;